Cherokee Observed Data For Previous 48 Hours

Caption
Day and Hour Reservoir Elevation (behind dam)* Tailwater Elevation (below dam)* Average Hourly Discharge*
5/24/2019 2 AM EDT 1,070.83 921.03 0
5/24/2019 3 AM EDT 1,070.84 921.48 94
5/24/2019 4 AM EDT 1,070.85 921.49 2,022
5/24/2019 5 AM EDT 1,070.86 921.03 0
5/24/2019 6 AM EDT 1,070.88 921.03 0
5/24/2019 7 AM EDT 1,070.88 921.03 0
5/24/2019 8 AM EDT 1,070.89 921.03 0
5/24/2019 9 AM EDT 1,070.90 921.50 100
5/24/2019 10 AM EDT 1,070.90 921.49 2,020
5/24/2019 11 AM EDT 1,070.91 921.03 0
5/24/2019 12 PM EDT 1,070.94 921.03 0
5/24/2019 1 PM EDT 1,070.92 921.52 100
5/24/2019 2 PM EDT 1,070.91 923.88 3,560
5/24/2019 3 PM EDT 1,070.92 924.05 3,599
5/24/2019 4 PM EDT 1,070.91 926.07 7,876
5/24/2019 5 PM EDT 1,070.90 926.11 8,045
5/24/2019 6 PM EDT 1,070.89 926.06 8,020
5/24/2019 7 PM EDT 1,070.89 923.91 3,669
5/24/2019 8 PM EDT 1,070.88 923.89 3,560
5/24/2019 9 PM EDT 1,070.89 921.09 64
5/24/2019 10 PM EDT 1,070.90 921.03 0
5/24/2019 11 PM EDT 1,070.90 921.03 0
5/25/2019 12 AM EDT 1,070.91 921.03 0
5/25/2019 1 AM EDT 1,070.91 921.47 94
5/25/2019 2 AM EDT 1,070.92 921.49 2,023
5/25/2019 3 AM EDT 1,070.91 921.03 0
5/25/2019 4 AM EDT 1,070.92 921.03 0
5/25/2019 5 AM EDT 1,070.92 921.03 0
5/25/2019 6 AM EDT 1,070.94 921.03 0
5/25/2019 7 AM EDT 1,070.95 921.47 93
5/25/2019 8 AM EDT 1,070.96 921.52 2,077
5/25/2019 9 AM EDT 1,070.96 921.03 0
5/25/2019 10 AM EDT 1,070.97 921.03 0
5/25/2019 11 AM EDT 1,070.97 921.03 0
5/25/2019 12 PM EDT 1,070.97 921.03 0
5/25/2019 1 PM EDT 1,070.96 921.47 95
5/25/2019 2 PM EDT 1,070.97 921.49 2,025
5/25/2019 3 PM EDT 1,070.97 921.03 0
5/25/2019 4 PM EDT 1,070.98 921.03 0
5/25/2019 5 PM EDT 1,070.98 921.03 0
5/25/2019 6 PM EDT 1,070.99 921.03 0
5/25/2019 7 PM EDT 1,071.00 921.48 99
5/25/2019 8 PM EDT 1,071.01 921.49 2,021
5/25/2019 9 PM EDT 1,071.02 921.03 0
5/25/2019 10 PM EDT 1,071.03 921.03 0
5/25/2019 11 PM EDT 1,071.03 921.03 0
5/26/2019 12 AM EDT 1,071.03 921.03 0
5/26/2019 1 AM EDT 1,071.03 921.35 63
5/26/2019 2 AM EDT 1,071.04 921.52 2,076
5/26/2019 3 AM EDT 1,071.05 921.03 0
5/26/2019 4 AM EDT 1,071.05 921.03 0
5/26/2019 5 AM EDT 1,071.05 921.03 0
5/26/2019 6 AM EDT 1,071.06 921.03 0
5/26/2019 7 AM EDT 1,071.05 921.31 61
5/26/2019 8 AM EDT 1,071.06 921.49 2,030
5/26/2019 9 AM EDT 1,071.07 921.03 0
5/26/2019 10 AM EDT 1,071.07 921.03 0
5/26/2019 11 AM EDT 1,071.08 921.03 0
5/26/2019 12 PM EDT 1,071.08 921.03 0
5/26/2019 1 PM EDT 1,071.07 921.34 66
5/26/2019 2 PM EDT 1,071.09 921.49 2,023
5/26/2019 3 PM EDT 1,071.10 921.03 0
5/26/2019 4 PM EDT 1,071.10 921.03 0
5/26/2019 5 PM EDT 1,071.10 921.03 0
5/26/2019 6 PM EDT 1,071.11 921.03 0

Elevations are in feet above sea level. Discharges are in cubic feet per second and are reported at the end of the hour.